Time;durP1;ratioP1;P1;durP2;ratioP2;P2;SDS_P1;SDS_P2;PMS_P1;PMS_P2;Temp;Humidity;BMP_temperature;BMP_pressure;BME280_temperature;BME280_humidity;BME280_pressure;Samples;Min_cycle;Max_cycle;Signal;HPM_P1;HPM_P2
2022/03/07 00:01:51;;;;;;;8.10;6.83;;;15.50;42.00;;;;;;5054455;28;20435;-81
2022/03/07 00:04:20;;;;;;;8.37;7.13;;;15.50;42.00;;;;;;5053741;28;20470;-81
2022/03/07 00:06:49;;;;;;;7.57;6.60;;;15.40;41.90;;;;;;5055160;28;20469;-81
2022/03/07 00:09:17;;;;;;;9.00;6.93;;;15.50;42.10;;;;;;5054939;28;20442;-81
2022/03/07 00:11:45;;;;;;;10.10;7.60;;;15.40;42.10;;;;;;5056486;28;20486;-83
2022/03/07 00:14:13;;;;;;;8.93;6.70;;;15.40;42.10;;;;;;5054654;28;20470;-84
2022/03/07 00:16:41;;;;;;;10.30;7.60;;;15.40;42.10;;;;;;5055036;28;20435;-81
2022/03/07 00:19:09;;;;;;;9.27;7.30;;;15.30;42.10;;;;;;5052198;28;20466;-80
2022/03/07 00:21:37;;;;;;;7.50;6.43;;;15.30;42.00;;;;;;5052917;28;20477;-81
2022/03/07 00:24:07;;;;;;;11.30;7.13;;;15.30;42.10;;;;;;5054498;28;20505;-81
2022/03/07 00:26:35;;;;;;;9.00;6.60;;;15.20;42.10;;;;;;5053357;28;20866;-81
2022/03/07 00:29:04;;;;;;;9.70;7.00;;;15.20;42.10;;;;;;5053550;28;20513;-81
2022/03/07 00:31:32;;;;;;;10.10;7.27;;;15.20;42.20;;;;;;5047418;28;20430;-81
2022/03/07 00:34:00;;;;;;;7.00;6.30;;;15.20;42.10;;;;;;5052887;28;20459;-82
2022/03/07 00:36:28;;;;;;;9.47;7.77;;;15.20;42.10;;;;;;5049866;28;20489;-82
2022/03/07 00:38:56;;;;;;;9.60;7.60;;;15.20;42.30;;;;;;5047173;28;20435;-81
2022/03/07 00:41:25;;;;;;;10.13;7.13;;;15.20;42.20;;;;;;5041453;28;20502;-81
2022/03/07 00:43:53;;;;;;;8.63;7.00;;;15.20;42.30;;;;;;5038003;28;20467;-82
2022/03/07 00:46:21;;;;;;;9.83;7.70;;;15.20;42.20;;;;;;5044801;28;20531;-81
2022/03/07 00:48:49;;;;;;;9.50;6.57;;;15.10;42.10;;;;;;5042304;28;20446;-81
2022/03/07 00:51:17;;;;;;;9.70;6.80;;;15.10;42.20;;;;;;5045458;28;20450;-80
2022/03/07 00:53:46;;;;;;;11.43;7.50;;;15.10;42.40;;;;;;5051947;28;20478;-81
2022/03/07 00:56:14;;;;;;;11.70;7.57;;;15.00;42.30;;;;;;5052784;28;20438;-80
2022/03/07 00:58:43;;;;;;;8.47;6.70;;;15.00;42.40;;;;;;5047598;28;20463;-81
2022/03/07 01:01:13;;;;;;;10.73;7.20;;;15.00;42.30;;;;;;5044839;28;20442;-81
2022/03/07 01:03:41;;;;;;;9.83;6.97;;;15.00;42.30;;;;;;5042161;28;20456;-81
2022/03/07 01:06:09;;;;;;;7.43;6.40;;;15.00;42.30;;;;;;5041763;28;20517;-81
2022/03/07 01:08:37;;;;;;;10.03;7.30;;;14.90;42.50;;;;;;5043112;28;20427;-81
2022/03/07 01:11:06;;;;;;;11.67;7.57;;;15.00;42.60;;;;;;5042896;28;20435;-81
2022/03/07 01:13:34;;;;;;;9.73;7.30;;;14.90;42.50;;;;;;5040897;28;20583;-81
2022/03/07 01:16:03;;;;;;;10.67;7.50;;;14.90;42.50;;;;;;5042216;28;20432;-81
2022/03/07 01:18:31;;;;;;;7.80;6.57;;;14.90;42.60;;;;;;5046638;28;20437;-82
2022/03/07 01:20:59;;;;;;;8.43;6.70;;;14.80;42.50;;;;;;5052950;28;20476;-82
2022/03/07 01:23:27;;;;;;;8.23;6.43;;;14.80;42.70;;;;;;5044589;28;20443;-81
2022/03/07 01:25:55;;;;;;;7.53;6.70;;;14.80;42.60;;;;;;5041992;28;20939;-81
2022/03/07 01:28:23;;;;;;;7.97;6.97;;;14.80;42.60;;;;;;5042404;28;20521;-81
2022/03/07 01:30:51;;;;;;;9.13;6.33;;;14.80;42.80;;;;;;5041843;28;20493;-82
2022/03/07 01:33:20;;;;;;;9.20;6.70;;;14.80;42.50;;;;;;5043450;28;20467;-81
2022/03/07 01:35:48;;;;;;;8.10;6.67;;;14.80;43.40;;;;;;5043627;28;20482;-81
2022/03/07 01:38:16;;;;;;;9.67;7.10;;;14.80;42.70;;;;;;5048711;28;20473;-82
2022/03/07 01:40:45;;;;;;;8.27;6.60;;;14.80;42.80;;;;;;5045121;28;20451;-81
2022/03/07 01:43:13;;;;;;;9.03;7.03;;;14.80;42.70;;;;;;5043017;28;20467;-80
2022/03/07 01:45:42;;;;;;;7.70;6.90;;;14.70;42.70;;;;;;5041692;28;20431;-81
2022/03/07 01:48:10;;;;;;;8.57;6.80;;;14.70;42.70;;;;;;5041122;28;20423;-81
2022/03/07 01:50:39;;;;;;;10.20;6.70;;;14.60;42.70;;;;;;5043174;28;20466;-81
2022/03/07 01:53:07;;;;;;;8.17;6.33;;;14.60;42.90;;;;;;5045674;28;20997;-81
2022/03/07 01:55:35;;;;;;;8.23;6.87;;;14.60;43.00;;;;;;5048749;28;20427;-80
2022/03/07 01:58:03;;;;;;;9.13;6.97;;;14.60;43.00;;;;;;5041883;28;20465;-81
2022/03/07 02:00:31;;;;;;;8.50;6.60;;;14.50;42.90;;;;;;5043024;28;20450;-81
2022/03/07 02:03:01;;;;;;;9.20;6.50;;;14.50;43.00;;;;;;5040622;28;20447;-81
2022/03/07 02:05:32;;;;;;;8.17;6.87;;;14.50;43.00;;;;;;5040834;28;20443;-81
2022/03/07 02:08:01;;;;;;;9.00;6.60;;;14.50;43.00;;;;;;5041661;28;20521;-81
2022/03/07 02:10:29;;;;;;;9.80;7.03;;;14.40;43.00;;;;;;5045004;28;20450;-81
2022/03/07 02:12:57;;;;;;;10.57;7.00;;;14.40;43.00;;;;;;5051867;28;20563;-81
2022/03/07 02:15:25;;;;;;;10.53;7.70;;;14.40;43.00;;;;;;5052261;28;20445;-81
2022/03/07 02:17:53;;;;;;;8.40;6.53;;;14.40;43.10;;;;;;5052379;28;20493;-81
2022/03/07 02:20:21;;;;;;;9.13;6.90;;;14.40;43.60;;;;;;5053298;28;20422;-82
2022/03/07 02:22:50;;;;;;;9.70;6.50;;;14.30;42.90;;;;;;5052370;28;20478;-82
2022/03/07 02:25:18;;;;;;;12.93;7.17;;;14.30;43.10;;;;;;5052731;28;20446;-80
2022/03/07 02:27:46;;;;;;;7.70;6.53;;;14.30;43.10;;;;;;5052485;28;20446;-80
2022/03/07 02:30:14;;;;;;;10.03;7.47;;;14.20;43.10;;;;;;5055947;28;20513;-81
2022/03/07 02:32:43;;;;;;;9.43;7.43;;;14.20;43.20;;;;;;5035807;28;20544;-81
2022/03/07 02:35:11;;;;;;;9.27;7.13;;;14.20;43.10;;;;;;5035710;28;20469;-81
2022/03/07 02:37:41;;;;;;;8.93;7.30;;;14.20;43.10;;;;;;5036416;28;20434;-81
2022/03/07 02:40:11;;;;;;;8.70;6.43;;;14.20;43.10;;;;;;5035786;28;20447;-80
2022/03/07 02:42:59;;;;;;;9.13;7.03;;;14.10;43.00;;;;;;5034734;28;21041;-81
2022/03/07 02:45:27;;;;;;;8.97;6.87;;;14.10;43.00;;;;;;5047058;28;20450;-80
2022/03/07 02:47:55;;;;;;;8.97;6.77;;;14.10;43.10;;;;;;5055679;28;20550;-80
2022/03/07 02:50:23;;;;;;;10.13;7.40;;;14.10;43.00;;;;;;5055308;28;20445;-80
2022/03/07 02:52:51;;;;;;;9.10;6.80;;;14.00;43.10;;;;;;5055459;28;20463;-81
2022/03/07 02:55:20;;;;;;;9.90;6.63;;;14.10;43.20;;;;;;5054983;28;20493;-81
2022/03/07 02:57:48;;;;;;;8.23;6.30;;;14.10;43.10;;;;;;5055919;28;20500;-81
2022/03/07 03:00:16;;;;;;;8.97;7.03;;;14.00;43.20;;;;;;5055322;28;20552;-80
2022/03/07 03:02:47;;;;;;;9.60;6.97;;;14.00;43.20;;;;;;5053009;28;20545;-81
2022/03/07 03:05:16;;;;;;;9.87;6.90;;;14.00;43.20;;;;;;5055393;28;20435;-80
2022/03/07 03:07:44;;;;;;;8.77;7.13;;;14.00;43.20;;;;;;5055355;28;20522;-80
2022/03/07 03:10:12;;;;;;;7.83;6.33;;;13.90;43.20;;;;;;5054956;28;20470;-80
2022/03/07 03:12:41;;;;;;;9.97;6.53;;;13.90;43.30;;;;;;5051609;28;20486;-80
2022/03/07 03:15:09;;;;;;;7.33;6.03;;;13.90;43.50;;;;;;5055112;28;20510;-80
2022/03/07 03:17:39;;;;;;;9.20;6.60;;;13.90;43.40;;;;;;5054260;28;20950;-80
2022/03/07 03:20:08;;;;;;;8.30;6.43;;;13.90;43.50;;;;;;5050735;28;20485;-80
2022/03/07 03:22:36;;;;;;;7.13;6.43;;;13.80;43.30;;;;;;5054443;28;20528;-80
2022/03/07 03:25:05;;;;;;;11.40;6.93;;;13.90;43.50;;;;;;5055714;28;20463;-80
2022/03/07 03:27:34;;;;;;;9.50;6.50;;;13.80;43.30;;;;;;5055486;28;20442;-80
2022/03/07 03:30:04;;;;;;;8.13;6.77;;;13.80;43.30;;;;;;5055249;28;20500;-81
2022/03/07 03:32:32;;;;;;;9.33;6.47;;;13.80;43.50;;;;;;5055260;28;20493;-81
2022/03/07 03:35:00;;;;;;;16.67;6.80;;;13.70;43.50;;;;;;5054580;28;20531;-81
2022/03/07 03:37:28;;;;;;;10.17;6.63;;;13.70;43.50;;;;;;5052156;28;20509;-80
2022/03/07 03:39:58;;;;;;;9.47;6.40;;;13.70;43.50;;;;;;5054283;28;20517;-81
2022/03/07 03:42:26;;;;;;;9.17;6.87;;;13.70;43.50;;;;;;5054215;28;20450;-81
2022/03/07 03:44:54;;;;;;;8.73;6.90;;;13.70;43.50;;;;;;5054317;28;20419;-81
2022/03/07 03:47:23;;;;;;;8.40;6.03;;;13.70;43.60;;;;;;5054639;28;20447;-81
2022/03/07 03:49:51;;;;;;;11.20;7.30;;;13.60;43.60;;;;;;5054893;28;20447;-81
2022/03/07 03:52:19;;;;;;;10.20;6.47;;;13.60;43.60;;;;;;5054692;28;20470;-82
2022/03/07 03:54:47;;;;;;;8.30;6.50;;;13.60;43.70;;;;;;5051907;28;20471;-81
2022/03/07 03:57:15;;;;;;;10.23;6.83;;;13.60;43.60;;;;;;5055227;28;20438;-81
2022/03/07 03:59:43;;;;;;;7.70;5.97;;;13.60;43.70;;;;;;5054593;28;20426;-81
2022/03/07 04:02:11;;;;;;;7.93;6.27;;;13.60;43.70;;;;;;5054587;28;20484;-81
2022/03/07 04:04:40;;;;;;;8.33;6.40;;;13.60;43.90;;;;;;5055082;28;20529;-80
2022/03/07 04:07:08;;;;;;;9.10;7.20;;;13.50;43.50;;;;;;5054881;28;20557;-80
2022/03/07 04:09:36;;;;;;;8.97;6.70;;;13.50;43.50;;;;;;5053535;28;20510;-81
2022/03/07 04:12:04;;;;;;;10.20;6.43;;;13.50;43.60;;;;;;5050332;28;20469;-80
2022/03/07 04:14:32;;;;;;;6.43;5.63;;;13.40;43.70;;;;;;5053327;28;20493;-81
2022/03/07 04:17:00;;;;;;;8.50;6.20;;;13.40;43.80;;;;;;5054101;28;20492;-80
2022/03/07 04:19:28;;;;;;;8.20;6.13;;;13.40;43.70;;;;;;5054059;28;20442;-81
2022/03/07 04:21:57;;;;;;;8.60;6.43;;;13.40;43.80;;;;;;5050005;28;20530;-80
2022/03/07 04:24:30;;;;;;;8.40;6.50;;;13.40;43.70;;;;;;5053985;28;20459;-81
2022/03/07 04:26:58;;;;;;;8.33;5.80;;;13.40;43.80;;;;;;5053945;28;20430;-80
2022/03/07 04:29:26;;;;;;;7.53;5.83;;;13.40;43.70;;;;;;5054093;28;20442;-81
2022/03/07 04:31:55;;;;;;;8.83;6.10;;;13.30;43.80;;;;;;5051803;28;20477;-80
2022/03/07 04:34:25;;;;;;;6.87;5.53;;;13.30;43.80;;;;;;5053177;28;20509;-82
2022/03/07 04:36:53;;;;;;;8.30;5.90;;;13.30;43.80;;;;;;5053284;28;20545;-80
2022/03/07 04:39:23;;;;;;;8.63;6.33;;;13.30;43.90;;;;;;5053178;28;20911;-81
2022/03/07 04:41:51;;;;;;;7.67;6.20;;;13.30;43.90;;;;;;5048399;28;20462;-81
2022/03/07 04:44:19;;;;;;;6.63;5.90;;;13.20;43.80;;;;;;5052795;28;20981;-80
2022/03/07 04:46:47;;;;;;;7.50;6.07;;;13.20;43.90;;;;;;5053377;28;20982;-80
2022/03/07 04:49:15;;;;;;;7.00;6.13;;;13.20;43.90;;;;;;5053290;28;20541;-81
2022/03/07 04:51:45;;;;;;;9.30;6.43;;;13.20;43.90;;;;;;5053500;28;20438;-80
2022/03/07 04:54:14;;;;;;;6.83;5.80;;;13.20;44.00;;;;;;5053185;28;20475;-81
2022/03/07 04:56:46;;;;;;;7.80;6.40;;;13.20;44.00;;;;;;5053600;28;20937;-80
2022/03/07 04:59:14;;;;;;;8.60;6.80;;;13.10;44.00;;;;;;5050656;28;20512;-82
2022/03/07 05:01:42;;;;;;;7.07;5.67;;;13.10;44.00;;;;;;5051939;28;20481;-82
2022/03/07 05:04:10;;;;;;;6.50;5.80;;;13.10;44.00;;;;;;5053042;28;20455;-81
2022/03/07 05:06:38;;;;;;;8.33;6.40;;;13.10;44.00;;;;;;5052768;28;20454;-81
2022/03/07 05:09:06;;;;;;;8.37;6.13;;;13.10;44.10;;;;;;5052664;28;20464;-81
2022/03/07 05:11:34;;;;;;;7.33;5.40;;;13.00;44.10;;;;;;5053192;28;20439;-80
2022/03/07 05:14:03;;;;;;;6.47;5.57;;;13.00;44.10;;;;;;5052849;28;20467;-80
2022/03/07 05:16:31;;;;;;;8.40;5.90;;;13.00;44.60;;;;;;5051235;28;20496;-80
2022/03/07 05:18:59;;;;;;;8.10;5.87;;;13.00;44.10;;;;;;5052930;28;20457;-81
2022/03/07 05:21:27;;;;;;;8.47;6.00;;;13.00;44.00;;;;;;5052906;28;20442;-82
2022/03/07 05:23:55;;;;;;;7.17;5.70;;;13.00;44.20;;;;;;5052543;28;20450;-81
2022/03/07 05:26:23;;;;;;;6.50;5.60;;;13.00;44.20;;;;;;5052439;28;20435;-81
2022/03/07 05:28:51;;;;;;;7.10;6.13;;;13.10;44.10;;;;;;5052986;28;20520;-82
2022/03/07 05:31:21;;;;;;;6.30;5.40;;;13.10;44.10;;;;;;5053122;28;20472;-81
2022/03/07 05:33:49;;;;;;;7.73;6.07;;;13.10;44.20;;;;;;5054241;28;20454;-81
2022/03/07 05:36:16;;;;;;;6.90;5.50;;;13.10;44.00;;;;;;5054927;28;20506;-81
2022/03/07 05:38:44;;;;;;;7.90;6.17;;;13.10;44.00;;;;;;5050924;28;20450;-81
2022/03/07 05:41:12;;;;;;;6.20;5.50;;;13.10;44.00;;;;;;5054583;28;20488;-81
2022/03/07 05:43:40;;;;;;;7.20;5.30;;;13.10;44.00;;;;;;5055230;28;20494;-82
2022/03/07 05:46:13;;;;;;;8.33;5.83;;;13.10;44.10;;;;;;5055045;28;20442;-81
2022/03/07 05:48:42;;;;;;;7.33;5.77;;;13.10;44.10;;;;;;5050124;28;20574;-82
2022/03/07 05:51:11;;;;;;;7.17;5.97;;;13.20;44.10;;;;;;5054714;28;20485;-82
2022/03/07 05:53:39;;;;;;;6.20;5.47;;;13.20;44.00;;;;;;5054685;28;20501;-81
2022/03/07 05:56:07;;;;;;;7.70;5.43;;;13.30;44.10;;;;;;5054950;28;20494;-81
2022/03/07 05:58:35;;;;;;;6.37;5.40;;;13.30;44.10;;;;;;5055139;28;20516;-81
2022/03/07 06:01:03;;;;;;;8.37;5.67;;;13.30;44.30;;;;;;5055116;28;20462;-82
2022/03/07 06:03:31;;;;;;;6.83;5.63;;;13.30;44.10;;;;;;5056783;28;20486;-82
2022/03/07 06:06:01;;;;;;;8.00;5.80;;;13.30;44.10;;;;;;5055742;28;20500;-82
2022/03/07 06:08:29;;;;;;;8.53;6.20;;;13.20;44.10;;;;;;5058409;28;20543;-82
2022/03/07 06:10:57;;;;;;;7.20;5.73;;;13.20;44.10;;;;;;5059231;28;20508;-81
2022/03/07 06:13:25;;;;;;;6.37;5.77;;;13.20;44.10;;;;;;5060529;28;20470;-80
2022/03/07 06:15:53;;;;;;;6.10;5.20;;;13.20;44.20;;;;;;5056944;28;20470;-81
2022/03/07 06:18:21;;;;;;;8.17;5.90;;;13.20;44.40;;;;;;5056003;28;20478;-81
2022/03/07 06:20:49;;;;;;;7.40;5.90;;;13.20;44.10;;;;;;5056032;28;20484;-82
2022/03/07 06:23:19;;;;;;;7.20;5.87;;;13.20;44.20;;;;;;5053827;28;20504;-83
2022/03/07 06:25:47;;;;;;;7.53;5.70;;;13.20;44.40;;;;;;5055820;28;20430;-82
2022/03/07 06:28:15;;;;;;;6.70;5.50;;;13.20;44.30;;;;;;5056000;28;20462;-83
2022/03/07 06:30:46;;;;;;;6.93;5.33;;;13.20;44.40;;;;;;5056360;28;20568;-80
2022/03/07 06:33:14;;;;;;;7.13;5.57;;;13.30;44.40;;;;;;5056343;28;20461;-80
2022/03/07 06:35:42;;;;;;;6.13;5.10;;;13.30;44.30;;;;;;5056456;28;20466;-80
2022/03/07 06:38:10;;;;;;;7.63;5.50;;;13.30;44.30;;;;;;5057096;28;20477;-82
2022/03/07 06:40:39;;;;;;;5.90;5.30;;;13.40;44.40;;;;;;5054207;28;20474;-81
2022/03/07 06:43:07;;;;;;;7.17;6.00;;;13.40;44.20;;;;;;5056088;28;20474;-81
2022/03/07 06:45:35;;;;;;;7.60;5.10;;;13.40;44.10;;;;;;5056429;28;20438;-80
2022/03/07 06:48:03;;;;;;;5.97;5.03;;;13.40;44.10;;;;;;5056619;28;20446;-80
2022/03/07 06:50:30;;;;;;;7.00;5.70;;;13.40;44.20;;;;;;5052917;28;20493;-80
2022/03/07 06:52:58;;;;;;;7.83;5.40;;;13.40;44.20;;;;;;5056558;28;20474;-80
2022/03/07 06:55:26;;;;;;;5.73;5.10;;;13.50;44.30;;;;;;5055838;28;20530;-80
2022/03/07 06:57:56;;;;;;;6.80;5.10;;;13.50;44.20;;;;;;5054724;28;20435;-80
2022/03/07 07:00:23;;;;;;;6.20;5.00;;;13.50;44.20;;;;;;5055629;28;20431;-80
2022/03/07 07:02:51;;;;;;;7.30;5.10;;;13.50;44.30;;;;;;5055936;28;20505;-80
2022/03/07 07:05:19;;;;;;;6.20;5.33;;;13.60;44.30;;;;;;5056368;28;20427;-80
2022/03/07 07:07:47;;;;;;;6.90;5.20;;;13.60;44.20;;;;;;5056298;28;20498;-80
2022/03/07 07:10:18;;;;;;;5.40;4.90;;;13.60;44.20;;;;;;5055789;28;20552;-80
2022/03/07 07:12:46;;;;;;;5.40;4.83;;;13.60;44.10;;;;;;5052701;28;20478;-80
2022/03/07 07:15:16;;;;;;;7.63;4.80;;;13.60;44.80;;;;;;5044580;28;20462;-81
2022/03/07 07:17:44;;;;;;;6.63;5.40;;;13.60;44.10;;;;;;5035238;28;20502;-80
2022/03/07 07:20:12;;;;;;;6.70;5.00;;;13.70;44.20;;;;;;5035401;28;20448;-80
2022/03/07 07:22:40;;;;;;;7.07;5.30;;;13.70;44.20;;;;;;5034584;28;20478;-80
2022/03/07 07:25:09;;;;;;;6.43;5.33;;;13.70;44.10;;;;;;5035184;28;20435;-80
2022/03/07 07:27:37;;;;;;;5.03;4.50;;;13.70;44.20;;;;;;5035335;28;20490;-80
2022/03/07 07:30:07;;;;;;;5.50;4.73;;;13.70;44.20;;;;;;5037107;28;20455;-80
2022/03/07 07:32:38;;;;;;;6.60;4.90;;;13.80;44.10;;;;;;5055210;28;20477;-79
2022/03/07 07:35:08;;;;;;;8.90;4.93;;;13.80;44.10;;;;;;5055587;28;20477;-79
2022/03/07 07:37:36;;;;;;;5.60;5.10;;;13.80;44.10;;;;;;5056861;28;20494;-79
2022/03/07 07:40:05;;;;;;;5.33;4.80;;;13.90;44.70;;;;;;5056245;28;20860;-78
2022/03/07 07:42:33;;;;;;;6.80;5.23;;;13.90;44.00;;;;;;5054807;28;20528;-78
2022/03/07 07:45:01;;;;;;;7.60;4.87;;;13.90;44.10;;;;;;5054847;28;20450;-78
2022/03/07 07:47:29;;;;;;;4.80;4.30;;;14.00;44.10;;;;;;5054961;28;20454;-79
2022/03/07 07:49:58;;;;;;;9.73;5.07;;;14.00;44.00;;;;;;5052600;28;20520;-79
2022/03/07 07:52:26;;;;;;;6.40;4.97;;;14.00;43.90;;;;;;5050534;28;20508;-79
2022/03/07 07:54:54;;;;;;;5.70;4.97;;;14.00;43.90;;;;;;5054556;28;20473;-79
2022/03/07 07:57:22;;;;;;;5.77;4.90;;;14.00;44.00;;;;;;5054164;28;20498;-78
2022/03/07 07:59:50;;;;;;;6.53;4.70;;;14.00;43.80;;;;;;5054613;28;20638;-78
2022/03/07 08:02:37;;;;;;;5.23;4.70;;;14.10;43.80;;;;;;5054463;28;20450;-78
2022/03/07 08:05:08;;;;;;;6.60;5.00;;;14.00;44.00;;;;;;5051842;28;20458;-78
2022/03/07 08:07:36;;;;;;;4.97;4.40;;;14.10;44.00;;;;;;5054703;28;20467;-78
2022/03/07 08:10:04;;;;;;;5.40;4.90;;;14.10;43.90;;;;;;5054341;28;20926;-79
2022/03/07 08:12:32;;;;;;;5.30;4.70;;;14.10;43.90;;;;;;5054061;28;20463;-79
2022/03/07 08:15:00;;;;;;;6.13;4.73;;;14.20;43.80;;;;;;5053958;28;20434;-78
2022/03/07 08:17:28;;;;;;;5.63;4.30;;;14.20;43.70;;;;;;5054197;28;20492;-79
2022/03/07 08:19:56;;;;;;;5.43;4.80;;;14.30;43.60;;;;;;5053815;28;20473;-78
2022/03/07 08:22:25;;;;;;;6.93;5.30;;;14.30;43.50;;;;;;5051808;28;20520;-79
2022/03/07 08:24:53;;;;;;;5.73;4.97;;;14.40;43.60;;;;;;5053910;28;20427;-79
2022/03/07 08:27:21;;;;;;;5.40;4.90;;;14.40;43.30;;;;;;5054280;28;20497;-78
2022/03/07 08:29:49;;;;;;;6.10;4.90;;;14.40;43.20;;;;;;5054655;28;20478;-79
2022/03/07 08:32:17;;;;;;;5.40;4.77;;;14.50;43.40;;;;;;5054464;28;20500;-79
2022/03/07 08:34:45;;;;;;;6.13;4.70;;;14.50;43.40;;;;;;5054571;28;20458;-79
2022/03/07 08:37:12;;;;;;;6.57;5.00;;;14.50;43.40;;;;;;5052998;28;20532;-79
2022/03/07 08:39:42;;;;;;;6.60;5.30;;;14.60;43.40;;;;;;5049415;28;20473;-79
2022/03/07 08:42:10;;;;;;;6.50;5.07;;;14.60;43.20;;;;;;5054190;28;20438;-79
2022/03/07 08:44:38;;;;;;;5.43;4.53;;;14.70;43.40;;;;;;5053821;28;20505;-80
2022/03/07 08:47:06;;;;;;;6.00;4.70;;;14.70;43.20;;;;;;5054234;28;20434;-79
2022/03/07 08:49:34;;;;;;;5.07;4.40;;;14.80;43.20;;;;;;5054162;28;20522;-79
2022/03/07 08:52:04;;;;;;;4.70;4.23;;;14.90;43.00;;;;;;5053677;28;20462;-79
2022/03/07 08:54:32;;;;;;;5.57;4.70;;;15.00;43.10;;;;;;5051166;28;20479;-79
2022/03/07 08:57:01;;;;;;;5.63;4.80;;;15.00;43.00;;;;;;5053384;28;20498;-80
2022/03/07 08:59:29;;;;;;;5.83;4.97;;;15.10;42.80;;;;;;5053992;28;20858;-80
2022/03/07 09:01:57;;;;;;;7.43;4.80;;;15.20;43.10;;;;;;5054176;28;20524;-80
2022/03/07 09:04:25;;;;;;;5.70;5.07;;;15.20;42.80;;;;;;5054330;28;20443;-79
2022/03/07 09:06:53;;;;;;;5.50;4.90;;;15.20;42.90;;;;;;5050377;28;20486;-80
2022/03/07 09:09:21;;;;;;;5.50;4.80;;;15.30;42.80;;;;;;5053469;28;20439;-79
2022/03/07 09:12:01;;;;;;;5.60;4.43;;;15.30;42.80;;;;;;5051944;28;20543;-80
2022/03/07 09:14:28;;;;;;;5.20;4.70;;;15.50;42.80;;;;;;5054734;28;20501;-80
2022/03/07 09:16:58;;;;;;;5.90;5.03;;;15.60;42.70;;;;;;5056825;28;20471;-80
2022/03/07 09:19:26;;;;;;;8.53;5.10;;;15.70;42.50;;;;;;5062440;28;20439;-80
2022/03/07 09:21:55;;;;;;;5.50;4.67;;;15.90;42.40;;;;;;5061695;28;20471;-80
2022/03/07 09:24:23;;;;;;;5.63;5.00;;;16.00;42.00;;;;;;5061752;28;20446;-81
2022/03/07 09:26:51;;;;;;;5.33;4.70;;;16.30;42.00;;;;;;5058650;28;20447;-83
2022/03/07 09:29:20;;;;;;;5.83;4.37;;;16.70;41.60;;;;;;5055466;28;20450;-82
2022/03/07 09:31:48;;;;;;;5.30;4.80;;;17.00;41.70;;;;;;5054095;28;20478;-81
2022/03/07 09:34:16;;;;;;;4.90;4.40;;;16.90;42.30;;;;;;5053570;28;20450;-82
2022/03/07 09:36:44;;;;;;;5.10;4.60;;;16.80;43.10;;;;;;5047930;28;20467;-82
2022/03/07 09:39:12;;;;;;;4.40;4.00;;;16.90;43.20;;;;;;5049908;28;20505;-82
2022/03/07 09:41:41;;;;;;;4.77;4.37;;;17.10;43.50;;;;;;5053212;28;20470;-82
2022/03/07 09:44:09;;;;;;;5.40;4.30;;;17.30;43.60;;;;;;5051097;28;20536;-83
2022/03/07 09:46:43;;;;;;;5.30;4.60;;;17.50;43.70;;;;;;5054367;28;20489;-83
2022/03/07 09:49:11;;;;;;;4.73;4.20;;;17.80;43.50;;;;;;5052927;28;20439;-84
2022/03/07 09:51:39;;;;;;;4.77;4.33;;;18.10;43.50;;;;;;5052792;28;20451;-83
2022/03/07 09:54:07;;;;;;;5.07;4.50;;;18.40;43.30;;;;;;5052698;28;20467;-81
2022/03/07 09:56:35;;;;;;;5.17;4.67;;;18.60;43.10;;;;;;5053117;28;20501;-81
2022/03/07 09:59:03;;;;;;;4.57;4.17;;;18.90;42.80;;;;;;5053202;28;20427;-83
2022/03/07 10:01:31;;;;;;;4.53;4.17;;;19.20;42.80;;;;;;5049685;28;20859;-82
2022/03/07 10:04:07;;;;;;;4.77;4.37;;;19.40;42.60;;;;;;5053802;28;20950;-84
2022/03/07 10:06:35;;;;;;;4.17;3.77;;;19.70;42.50;;;;;;5054309;28;20438;-80
2022/03/07 10:09:04;;;;;;;4.27;3.90;;;19.90;42.20;;;;;;5054629;28;20470;-80
2022/03/07 10:11:32;;;;;;;4.97;4.57;;;20.20;42.00;;;;;;5053954;28;20451;-80
2022/03/07 10:14:01;;;;;;;5.70;4.10;;;20.50;41.80;;;;;;5054815;28;20500;-80
2022/03/07 10:16:39;;;;;;;4.73;4.30;;;20.60;41.70;;;;;;5055112;28;20463;-79
2022/03/07 10:19:09;;;;;;;4.17;3.87;;;20.90;41.50;;;;;;5058052;28;20446;-79
2022/03/07 10:21:37;;;;;;;4.03;3.73;;;21.20;41.30;;;;;;5060511;28;20431;-79
2022/03/07 10:24:06;;;;;;;4.00;3.70;;;21.50;41.00;;;;;;5058548;28;20494;-79
2022/03/07 10:26:39;;;;;;;5.10;3.70;;;21.80;40.90;;;;;;5052920;28;20449;-81
2022/03/07 10:29:06;;;;;;;4.07;3.77;;;22.00;40.70;;;;;;5052791;28;20439;-83
2022/03/07 10:31:54;;;;;;;3.90;3.40;;;22.20;40.50;;;;;;5053235;28;20441;-80
2022/03/07 10:34:25;;;;;;;5.53;4.30;;;22.50;40.30;;;;;;5050968;28;20596;-81
2022/03/07 10:36:53;;;;;;;4.10;3.80;;;22.70;40.00;;;;;;5054932;28;21005;-79
2022/03/07 10:39:25;;;;;;;5.70;3.77;;;22.90;39.90;;;;;;5058922;28;20434;-78
2022/03/07 10:41:53;;;;;;;4.20;3.80;;;23.10;39.70;;;;;;5057175;28;20508;-78
2022/03/07 10:44:29;;;;;;;4.43;4.07;;;23.30;39.50;;;;;;5052749;28;20478;-80
2022/03/07 10:47:08;;;;;;;3.73;3.43;;;23.50;39.40;;;;;;5046381;28;20488;-82
2022/03/07 10:49:46;;;;;;;4.40;3.50;;;23.70;39.20;;;;;;5051657;28;20450;-80
2022/03/07 10:52:14;;;;;;;4.53;4.20;;;24.00;39.00;;;;;;5056040;28;20462;-81
2022/03/07 10:54:42;;;;;;;4.10;3.77;;;24.20;38.60;;;;;;5055437;28;20442;-80
2022/03/07 10:57:10;;;;;;;3.50;3.30;;;24.40;38.40;;;;;;5055665;28;20401;-80
2022/03/07 10:59:38;;;;;;;3.97;3.60;;;24.50;38.40;;;;;;5056109;28;20471;-81
2022/03/07 11:02:09;;;;;;;4.00;3.70;;;24.70;38.20;;;;;;5055574;28;20435;-81
2022/03/07 11:04:39;;;;;;;3.83;3.63;;;24.90;37.90;;;;;;5055691;28;20425;-82
2022/03/07 11:07:08;;;;;;;4.30;3.70;;;25.20;37.60;;;;;;5055205;28;20450;-81
2022/03/07 11:09:36;;;;;;;4.27;3.97;;;25.40;37.20;;;;;;5057151;28;20421;-82
2022/03/07 11:12:06;;;;;;;4.00;3.70;;;25.60;37.00;;;;;;5057318;28;20451;-81
2022/03/07 11:14:34;;;;;;;3.63;3.37;;;25.80;36.70;;;;;;5055701;28;20458;-81
2022/03/07 11:17:02;;;;;;;4.33;3.93;;;26.10;36.40;;;;;;5055858;28;20423;-81
2022/03/07 11:19:30;;;;;;;3.90;3.70;;;26.40;36.10;;;;;;5055459;28;20417;-81
2022/03/07 11:21:59;;;;;;;3.67;3.37;;;26.60;35.60;;;;;;5055341;28;20465;-81
2022/03/07 11:24:28;;;;;;;4.00;3.70;;;27.00;35.20;;;;;;5051567;28;20449;-81
2022/03/07 11:26:56;;;;;;;3.53;3.33;;;27.60;34.60;;;;;;5055635;28;20503;-82
2022/03/07 11:29:35;;;;;;;3.50;3.30;;;28.40;33.30;;;;;;5055585;28;20432;-82
2022/03/07 11:32:04;;;;;;;3.90;3.07;;;29.30;32.10;;;;;;5055118;28;20453;-81
2022/03/07 11:34:31;;;;;;;3.90;3.60;;;30.20;31.00;;;;;;5054310;28;20474;-81
2022/03/07 11:37:01;;;;;;;3.80;3.40;;;31.00;30.00;;;;;;5055519;28;20439;-82
2022/03/07 11:39:30;;;;;;;3.50;3.30;;;31.90;29.10;;;;;;5049467;28;20553;-83
2022/03/07 11:42:08;;;;;;;3.60;3.00;;;32.70;28.20;;;;;;5053866;28;20483;-79
2022/03/07 11:44:42;;;;;;;3.80;3.50;;;33.30;24.70;;;;;;5049597;28;20197;-82
2022/03/07 11:47:11;;;;;;;3.60;3.30;;;33.50;24.30;;;;;;5057768;28;20845;-84
2022/03/07 11:49:39;;;;;;;5.93;3.20;;;34.20;24.60;;;;;;5062282;28;20453;-85
2022/03/07 11:52:10;;;;;;;2.83;2.73;;;35.50;23.90;;;;;;5063438;28;20439;-84
2022/03/07 11:54:51;;;;;;;3.13;2.73;;;36.10;23.60;;;;;;5057559;28;20463;-85
2022/03/07 11:57:19;;;;;;;2.50;2.40;;;37.30;22.70;;;;;;5054323;28;20447;-85
2022/03/07 11:59:47;;;;;;;2.70;2.60;;;37.40;22.60;;;;;;5055010;28;20525;-85
2022/03/07 12:02:15;;;;;;;2.70;2.47;;;38.20;22.20;;;;;;5050696;28;20454;-85
2022/03/07 12:04:44;;;;;;;3.80;2.80;;;39.00;21.50;;;;;;5055310;28;20445;-84
2022/03/07 12:07:24;;;;;;;2.50;2.40;;;39.40;21.10;;;;;;5051944;28;20447;-85
2022/03/07 12:09:52;;;;;;;2.60;2.50;;;40.20;20.50;;;;;;5048259;28;20443;-85
2022/03/07 12:12:21;;;;;;;1.97;1.97;;;40.80;20.20;;;;;;5051257;28;20460;-85
2022/03/07 12:14:49;;;;;;;2.10;2.00;;;41.20;19.80;;;;;;5056595;28;20443;-85
2022/03/07 12:17:18;;;;;;;2.10;2.00;;;41.50;19.70;;;;;;5054052;28;20512;-85
2022/03/07 12:19:54;;;;;;;2.17;2.07;;;41.90;19.50;;;;;;5054875;28;20473;-85
2022/03/07 12:22:24;;;;;;;1.80;1.80;;;42.10;19.30;;;;;;5053479;28;20441;-85
2022/03/07 12:24:54;;;;;;;2.13;2.13;;;42.50;19.00;;;;;;5053952;28;20442;-85
2022/03/07 12:27:24;;;;;;;2.00;2.00;;;42.80;18.90;;;;;;5057200;28;20807;-84
2022/03/07 12:29:52;;;;;;;2.00;2.00;;;43.00;18.70;;;;;;5059062;28;20446;-84
2022/03/07 12:32:20;;;;;;;1.80;1.70;;;43.00;18.60;;;;;;5057918;28;20438;-85
2022/03/07 12:34:48;;;;;;;1.60;1.60;;;43.00;18.70;;;;;;5055478;28;20442;-84
2022/03/07 12:37:18;;;;;;;1.70;1.70;;;43.20;18.50;;;;;;5049007;28;20524;-85
2022/03/07 12:39:48;;;;;;;1.50;1.50;;;43.00;18.50;;;;;;5062569;28;20466;-85
2022/03/07 12:42:17;;;;;;;1.63;1.63;;;42.60;18.80;;;;;;5051261;28;20451;-85
2022/03/07 12:44:45;;;;;;;1.80;1.80;;;42.20;18.80;;;;;;5059428;28;20450;-85
2022/03/07 12:47:13;;;;;;;1.70;1.70;;;41.20;19.20;;;;;;5054549;28;20468;-85
2022/03/07 12:49:43;;;;;;;2.10;2.10;;;41.20;19.30;;;;;;5057679;28;20445;-86
2022/03/07 12:52:21;;;;;;;1.80;1.80;;;41.50;19.40;;;;;;5056306;28;20470;-85
2022/03/07 12:54:50;;;;;;;1.60;1.60;;;41.80;19.20;;;;;;5048920;28;20462;-84